West University Place, Texas
Current Conditions -  °F | °C
As of 2:35 PM on Saturday 25 Oct 2014 (Local Time) from KMCJ Reporting Station
Clear Clear  
Wind Chill: 86°   Ceiling: Unl
Heat Index: 86°   Visibility: NA
Dew Point: 50°   Wind: 0mph
Humidity: 29%   Direction: NA
Pressure: 30.09"   Gusts: NA
Location:  29.7181°N, 95.4241°W
Report Text: KMCJ 251935Z AUTO 00000KT CLR 30/10 A3009 RMK AO1
Loading
Personal Weather Stations






























Interactive Weather Map
Tropical Storm Tracking
New forecast layout! Learn more

10-Day Weather Forecast

Advertisements
Track Severe Weather on mobile